sensor_id;sensor_type;location;lat;lon;timestamp;temperature;humidity
74294;DHT22;64044;59.904;10.738;2022-12-05T00:03:46;2.70;59.30
74294;DHT22;64044;59.904;10.738;2022-12-05T00:06:13;2.70;59.20
74294;DHT22;64044;59.904;10.738;2022-12-05T00:08:38;2.60;59.20
74294;DHT22;64044;59.904;10.738;2022-12-05T00:11:19;2.70;59.30
74294;DHT22;64044;59.904;10.738;2022-12-05T00:13:45;2.60;59.50
74294;DHT22;64044;59.904;10.738;2022-12-05T00:16:14;2.70;59.70
74294;DHT22;64044;59.904;10.738;2022-12-05T00:18:41;2.60;59.10
74294;DHT22;64044;59.904;10.738;2022-12-05T00:21:10;2.60;59.10
74294;DHT22;64044;59.904;10.738;2022-12-05T00:23:36;2.60;59.20
74294;DHT22;64044;59.904;10.738;2022-12-05T00:26:03;2.60;59.20
74294;DHT22;64044;59.904;10.738;2022-12-05T00:28:32;2.60;59.30
74294;DHT22;64044;59.904;10.738;2022-12-05T00:31:07;2.50;59.80
74294;DHT22;64044;59.904;10.738;2022-12-05T00:33:33;2.60;59.20
74294;DHT22;64044;59.904;10.738;2022-12-05T00:36:04;2.50;59.10
74294;DHT22;64044;59.904;10.738;2022-12-05T00:38:30;2.50;59.10
74294;DHT22;64044;59.904;10.738;2022-12-05T00:41:02;2.50;59.10
74294;DHT22;64044;59.904;10.738;2022-12-05T00:43:28;2.50;59.20
74294;DHT22;64044;59.904;10.738;2022-12-05T00:45:53;2.50;59.20
74294;DHT22;64044;59.904;10.738;2022-12-05T00:48:19;2.50;59.30
74294;DHT22;64044;59.904;10.738;2022-12-05T00:50:44;2.50;59.30
74294;DHT22;64044;59.904;10.738;2022-12-05T00:53:10;2.50;59.30
74294;DHT22;64044;59.904;10.738;2022-12-05T00:55:36;2.50;59.30
74294;DHT22;64044;59.904;10.738;2022-12-05T00:58:02;2.40;59.30
74294;DHT22;64044;59.904;10.738;2022-12-05T01:00:28;2.50;59.40
74294;DHT22;64044;59.904;10.738;2022-12-05T01:02:54;2.50;59.30
74294;DHT22;64044;59.904;10.738;2022-12-05T01:05:20;2.40;59.90
74294;DHT22;64044;59.904;10.738;2022-12-05T01:07:45;2.50;59.40
74294;DHT22;64044;59.904;10.738;2022-12-05T01:10:11;2.40;59.50
74294;DHT22;64044;59.904;10.738;2022-12-05T01:12:37;2.50;59.60
74294;DHT22;64044;59.904;10.738;2022-12-05T01:15:03;2.50;59.60
74294;DHT22;64044;59.904;10.738;2022-12-05T01:17:28;2.50;59.50
74294;DHT22;64044;59.904;10.738;2022-12-05T01:19:54;2.50;59.50
74294;DHT22;64044;59.904;10.738;2022-12-05T01:22:20;2.50;59.40
74294;DHT22;64044;59.904;10.738;2022-12-05T01:24:45;2.50;59.40
74294;DHT22;64044;59.904;10.738;2022-12-05T01:27:11;2.50;59.50
74294;DHT22;64044;59.904;10.738;2022-12-05T01:29:37;2.40;59.40
74294;DHT22;64044;59.904;10.738;2022-12-05T01:32:03;2.40;59.40
74294;DHT22;64044;59.904;10.738;2022-12-05T01:34:28;2.40;59.40
74294;DHT22;64044;59.904;10.738;2022-12-05T01:36:54;2.40;59.40
74294;DHT22;64044;59.904;10.738;2022-12-05T01:39:20;2.40;59.40
74294;DHT22;64044;59.904;10.738;2022-12-05T01:41:48;2.40;59.40
74294;DHT22;64044;59.904;10.738;2022-12-05T01:46:50;2.40;59.40
74294;DHT22;64044;59.904;10.738;2022-12-05T01:49:25;2.40;59.40
74294;DHT22;64044;59.904;10.738;2022-12-05T01:51:54;2.40;59.40
74294;DHT22;64044;59.904;10.738;2022-12-05T01:54:22;2.40;59.40
74294;DHT22;64044;59.904;10.738;2022-12-05T01:57:01;2.40;59.50
74294;DHT22;64044;59.904;10.738;2022-12-05T01:59:31;2.40;59.40
74294;DHT22;64044;59.904;10.738;2022-12-05T02:01:58;2.40;59.40
74294;DHT22;64044;59.904;10.738;2022-12-05T02:04:24;2.40;59.40
74294;DHT22;64044;59.904;10.738;2022-12-05T02:06:49;2.40;59.50
74294;DHT22;64044;59.904;10.738;2022-12-05T02:09:40;2.40;59.60
74294;DHT22;64044;59.904;10.738;2022-12-05T02:12:06;2.40;59.50
74294;DHT22;64044;59.904;10.738;2022-12-05T02:14:48;2.40;59.50
74294;DHT22;64044;59.904;10.738;2022-12-05T02:30:56;2.40;58.30
74294;DHT22;64044;59.904;10.738;2022-12-05T02:33:59;2.40;58.00
74294;DHT22;64044;59.904;10.738;2022-12-05T02:44:35;2.40;58.30
74294;DHT22;64044;59.904;10.738;2022-12-05T02:47:02;2.40;58.40
74294;DHT22;64044;59.904;10.738;2022-12-05T02:49:35;2.40;58.30
74294;DHT22;64044;59.904;10.738;2022-12-05T02:52:04;2.40;58.00
74294;DHT22;64044;59.904;10.738;2022-12-05T02:54:34;2.40;58.00
74294;DHT22;64044;59.904;10.738;2022-12-05T02:57:00;2.40;58.10
74294;DHT22;64044;59.904;10.738;2022-12-05T02:59:27;2.40;58.00
74294;DHT22;64044;59.904;10.738;2022-12-05T03:01:53;2.40;58.10
74294;DHT22;64044;59.904;10.738;2022-12-05T03:04:20;2.40;58.20
74294;DHT22;64044;59.904;10.738;2022-12-05T03:07:10;2.40;58.30
74294;DHT22;64044;59.904;10.738;2022-12-05T03:09:45;2.40;58.30
74294;DHT22;64044;59.904;10.738;2022-12-05T03:12:18;2.40;58.40
74294;DHT22;64044;59.904;10.738;2022-12-05T03:14:50;2.40;58.30
74294;DHT22;64044;59.904;10.738;2022-12-05T03:17:21;2.40;58.30
74294;DHT22;64044;59.904;10.738;2022-12-05T03:20:06;2.40;58.30
74294;DHT22;64044;59.904;10.738;2022-12-05T03:22:57;2.40;58.00
74294;DHT22;64044;59.904;10.738;2022-12-05T03:25:25;2.40;57.90
74294;DHT22;64044;59.904;10.738;2022-12-05T03:28:08;2.40;57.80
74294;DHT22;64044;59.904;10.738;2022-12-05T03:30:37;2.40;58.00
74294;DHT22;64044;59.904;10.738;2022-12-05T03:33:10;2.40;58.10
74294;DHT22;64044;59.904;10.738;2022-12-05T03:38:14;2.30;58.10
74294;DHT22;64044;59.904;10.738;2022-12-05T03:43:55;2.40;58.30
74294;DHT22;64044;59.904;10.738;2022-12-05T03:46:33;2.40;58.20
74294;DHT22;64044;59.904;10.738;2022-12-05T03:52:12;2.40;58.20
74294;DHT22;64044;59.904;10.738;2022-12-05T03:54:45;2.40;58.20
74294;DHT22;64044;59.904;10.738;2022-12-05T04:00:14;2.30;58.00
74294;DHT22;64044;59.904;10.738;2022-12-05T04:05:37;2.30;58.20
74294;DHT22;64044;59.904;10.738;2022-12-05T04:08:06;2.30;58.50
74294;DHT22;64044;59.904;10.738;2022-12-05T04:10:36;2.20;58.80
74294;DHT22;64044;59.904;10.738;2022-12-05T04:13:23;2.20;58.90
74294;DHT22;64044;59.904;10.738;2022-12-05T04:15:58;2.20;58.90
74294;DHT22;64044;59.904;10.738;2022-12-05T04:21:43;2.10;58.80
74294;DHT22;64044;59.904;10.738;2022-12-05T04:24:17;2.10;58.90
74294;DHT22;64044;59.904;10.738;2022-12-05T04:27:22;2.10;58.90
74294;DHT22;64044;59.904;10.738;2022-12-05T04:32:29;2.00;59.50
74294;DHT22;64044;59.904;10.738;2022-12-05T04:34:59;2.00;59.40
74294;DHT22;64044;59.904;10.738;2022-12-05T04:37:27;2.00;59.30
74294;DHT22;64044;59.904;10.738;2022-12-05T04:40:02;2.00;59.30
74294;DHT22;64044;59.904;10.738;2022-12-05T04:42:31;2.10;59.50
74294;DHT22;64044;59.904;10.738;2022-12-05T04:45:02;2.10;59.60
74294;DHT22;64044;59.904;10.738;2022-12-05T04:47:30;2.10;59.70
74294;DHT22;64044;59.904;10.738;2022-12-05T04:49:57;2.10;60.00
74294;DHT22;64044;59.904;10.738;2022-12-05T04:52:24;2.10;59.60
74294;DHT22;64044;59.904;10.738;2022-12-05T04:55:06;2.10;59.70
74294;DHT22;64044;59.904;10.738;2022-12-05T04:57:39;2.10;59.80
74294;DHT22;64044;59.904;10.738;2022-12-05T05:00:07;2.10;59.80
74294;DHT22;64044;59.904;10.738;2022-12-05T05:03:14;2.20;60.00
74294;DHT22;64044;59.904;10.738;2022-12-05T05:05:38;2.20;60.10
74294;DHT22;64044;59.904;10.738;2022-12-05T05:08:04;2.20;60.00
74294;DHT22;64044;59.904;10.738;2022-12-05T05:10:48;2.20;59.90
74294;DHT22;64044;59.904;10.738;2022-12-05T05:13:15;2.20;59.60
74294;DHT22;64044;59.904;10.738;2022-12-05T05:15:40;2.20;59.60
74294;DHT22;64044;59.904;10.738;2022-12-05T05:18:07;2.20;59.50
74294;DHT22;64044;59.904;10.738;2022-12-05T05:20:33;2.20;59.40
74294;DHT22;64044;59.904;10.738;2022-12-05T05:22:59;2.20;59.40
74294;DHT22;64044;59.904;10.738;2022-12-05T05:25:25;2.10;59.30
74294;DHT22;64044;59.904;10.738;2022-12-05T05:27:53;2.10;59.30
74294;DHT22;64044;59.904;10.738;2022-12-05T05:30:20;2.10;59.60
74294;DHT22;64044;59.904;10.738;2022-12-05T05:32:47;2.10;59.40
74294;DHT22;64044;59.904;10.738;2022-12-05T05:35:13;2.10;59.30
74294;DHT22;64044;59.904;10.738;2022-12-05T05:37:40;2.00;59.30
74294;DHT22;64044;59.904;10.738;2022-12-05T05:40:07;2.00;59.40
74294;DHT22;64044;59.904;10.738;2022-12-05T05:42:33;2.00;59.30
74294;DHT22;64044;59.904;10.738;2022-12-05T05:44:59;2.10;59.60
74294;DHT22;64044;59.904;10.738;2022-12-05T05:47:25;2.00;59.70
74294;DHT22;64044;59.904;10.738;2022-12-05T05:49:50;2.00;60.00
74294;DHT22;64044;59.904;10.738;2022-12-05T05:52:16;2.00;59.70
74294;DHT22;64044;59.904;10.738;2022-12-05T05:54:41;2.00;59.90
74294;DHT22;64044;59.904;10.738;2022-12-05T05:57:07;1.90;60.00
74294;DHT22;64044;59.904;10.738;2022-12-05T05:59:33;1.90;60.10
74294;DHT22;64044;59.904;10.738;2022-12-05T06:01:58;1.90;60.40
74294;DHT22;64044;59.904;10.738;2022-12-05T06:04:24;1.90;60.20
74294;DHT22;64044;59.904;10.738;2022-12-05T06:06:50;1.80;60.40
74294;DHT22;64044;59.904;10.738;2022-12-05T06:09:15;1.90;60.20
74294;DHT22;64044;59.904;10.738;2022-12-05T06:11:41;1.90;60.10
74294;DHT22;64044;59.904;10.738;2022-12-05T06:14:08;1.80;60.50
74294;DHT22;64044;59.904;10.738;2022-12-05T06:16:33;1.80;60.70
74294;DHT22;64044;59.904;10.738;2022-12-05T06:18:59;1.80;61.00
74294;DHT22;64044;59.904;10.738;2022-12-05T06:21:25;1.80;60.60
74294;DHT22;64044;59.904;10.738;2022-12-05T06:23:50;1.70;60.60
74294;DHT22;64044;59.904;10.738;2022-12-05T06:26:19;1.70;60.80
74294;DHT22;64044;59.904;10.738;2022-12-05T06:28:45;1.70;60.30
74294;DHT22;64044;59.904;10.738;2022-12-05T06:31:13;1.70;60.40
74294;DHT22;64044;59.904;10.738;2022-12-05T06:33:40;1.60;60.70
74294;DHT22;64044;59.904;10.738;2022-12-05T06:36:09;1.60;60.10
74294;DHT22;64044;59.904;10.738;2022-12-05T06:38:35;1.60;60.30
74294;DHT22;64044;59.904;10.738;2022-12-05T06:41:04;1.60;60.50
74294;DHT22;64044;59.904;10.738;2022-12-05T06:43:30;1.60;60.50
74294;DHT22;64044;59.904;10.738;2022-12-05T06:45:55;1.60;60.60
74294;DHT22;64044;59.904;10.738;2022-12-05T06:48:22;1.60;60.10
74294;DHT22;64044;59.904;10.738;2022-12-05T06:50:50;1.60;60.40
74294;DHT22;64044;59.904;10.738;2022-12-05T06:53:16;1.60;60.60
74294;DHT22;64044;59.904;10.738;2022-12-05T06:55:42;1.50;61.40
74294;DHT22;64044;59.904;10.738;2022-12-05T06:58:07;1.60;61.10
74294;DHT22;64044;59.904;10.738;2022-12-05T07:00:58;1.60;60.60
74294;DHT22;64044;59.904;10.738;2022-12-05T07:03:42;1.60;60.50
74294;DHT22;64044;59.904;10.738;2022-12-05T07:06:09;1.50;60.80
74294;DHT22;64044;59.904;10.738;2022-12-05T07:08:34;1.50;60.50
74294;DHT22;64044;59.904;10.738;2022-12-05T07:11:01;1.50;60.70
74294;DHT22;64044;59.904;10.738;2022-12-05T07:13:27;1.50;61.40
74294;DHT22;64044;59.904;10.738;2022-12-05T07:15:53;1.50;60.70
74294;DHT22;64044;59.904;10.738;2022-12-05T07:18:19;1.50;60.80
74294;DHT22;64044;59.904;10.738;2022-12-05T07:20:45;1.50;60.80
74294;DHT22;64044;59.904;10.738;2022-12-05T07:23:19;1.50;60.60
74294;DHT22;64044;59.904;10.738;2022-12-05T07:25:45;1.50;60.20
74294;DHT22;64044;59.904;10.738;2022-12-05T07:28:10;1.50;60.40
74294;DHT22;64044;59.904;10.738;2022-12-05T07:30:36;1.50;60.20
74294;DHT22;64044;59.904;10.738;2022-12-05T07:33:02;1.50;60.10
74294;DHT22;64044;59.904;10.738;2022-12-05T07:35:28;1.50;60.40
74294;DHT22;64044;59.904;10.738;2022-12-05T07:37:54;1.50;60.50
74294;DHT22;64044;59.904;10.738;2022-12-05T07:40:19;1.50;61.10
74294;DHT22;64044;59.904;10.738;2022-12-05T07:42:47;1.50;60.40
74294;DHT22;64044;59.904;10.738;2022-12-05T07:45:13;1.50;60.50
74294;DHT22;64044;59.904;10.738;2022-12-05T07:47:39;1.50;60.50
74294;DHT22;64044;59.904;10.738;2022-12-05T07:50:05;1.50;61.00
74294;DHT22;64044;59.904;10.738;2022-12-05T07:52:31;1.50;60.20
74294;DHT22;64044;59.904;10.738;2022-12-05T07:54:56;1.50;59.80
74294;DHT22;64044;59.904;10.738;2022-12-05T07:57:22;1.50;60.20
74294;DHT22;64044;59.904;10.738;2022-12-05T07:59:48;1.50;59.90
74294;DHT22;64044;59.904;10.738;2022-12-05T08:02:14;1.50;60.00
74294;DHT22;64044;59.904;10.738;2022-12-05T08:04:39;1.50;59.80
74294;DHT22;64044;59.904;10.738;2022-12-05T08:07:05;1.60;59.80
74294;DHT22;64044;59.904;10.738;2022-12-05T08:09:33;1.50;59.80
74294;DHT22;64044;59.904;10.738;2022-12-05T08:11:59;1.50;59.60
74294;DHT22;64044;59.904;10.738;2022-12-05T08:14:25;1.60;59.60
74294;DHT22;64044;59.904;10.738;2022-12-05T08:16:50;1.50;60.10
74294;DHT22;64044;59.904;10.738;2022-12-05T08:19:16;1.50;60.20
74294;DHT22;64044;59.904;10.738;2022-12-05T08:21:42;1.50;59.60
74294;DHT22;64044;59.904;10.738;2022-12-05T08:24:08;1.50;59.50
74294;DHT22;64044;59.904;10.738;2022-12-05T08:26:35;1.50;60.00
74294;DHT22;64044;59.904;10.738;2022-12-05T08:31:31;1.40;60.00
74294;DHT22;64044;59.904;10.738;2022-12-05T08:33:58;1.40;59.70
74294;DHT22;64044;59.904;10.738;2022-12-05T08:36:26;1.40;60.30
74294;DHT22;64044;59.904;10.738;2022-12-05T08:38:57;1.40;60.40
74294;DHT22;64044;59.904;10.738;2022-12-05T08:41:23;1.40;60.50
74294;DHT22;64044;59.904;10.738;2022-12-05T08:43:53;1.40;60.00
74294;DHT22;64044;59.904;10.738;2022-12-05T08:46:20;1.40;60.90
74294;DHT22;64044;59.904;10.738;2022-12-05T08:48:45;1.40;60.80
74294;DHT22;64044;59.904;10.738;2022-12-05T08:51:11;1.40;61.00
74294;DHT22;64044;59.904;10.738;2022-12-05T08:53:39;1.40;61.00
74294;DHT22;64044;59.904;10.738;2022-12-05T08:56:06;1.40;60.90
74294;DHT22;64044;59.904;10.738;2022-12-05T08:58:33;1.40;62.20
74294;DHT22;64044;59.904;10.738;2022-12-05T09:01:18;1.30;61.50
74294;DHT22;64044;59.904;10.738;2022-12-05T09:03:44;1.30;62.30
74294;DHT22;64044;59.904;10.738;2022-12-05T09:06:13;1.30;61.70
74294;DHT22;64044;59.904;10.738;2022-12-05T09:08:40;1.30;62.00
74294;DHT22;64044;59.904;10.738;2022-12-05T09:11:13;1.40;61.90
74294;DHT22;64044;59.904;10.738;2022-12-05T09:13:39;1.30;61.30
74294;DHT22;64044;59.904;10.738;2022-12-05T09:16:13;1.30;61.00
74294;DHT22;64044;59.904;10.738;2022-12-05T09:18:39;1.40;60.90
74294;DHT22;64044;59.904;10.738;2022-12-05T09:21:15;1.40;60.70
74294;DHT22;64044;59.904;10.738;2022-12-05T09:23:41;1.40;60.60
74294;DHT22;64044;59.904;10.738;2022-12-05T09:26:10;1.40;60.50
74294;DHT22;64044;59.904;10.738;2022-12-05T09:28:36;1.40;61.00
74294;DHT22;64044;59.904;10.738;2022-12-05T09:31:09;1.40;60.70
74294;DHT22;64044;59.904;10.738;2022-12-05T09:33:36;1.40;60.50
74294;DHT22;64044;59.904;10.738;2022-12-05T09:36:22;1.40;60.30
74294;DHT22;64044;59.904;10.738;2022-12-05T09:38:49;1.50;60.20
74294;DHT22;64044;59.904;10.738;2022-12-05T09:44:08;1.50;61.00
74294;DHT22;64044;59.904;10.738;2022-12-05T09:49:04;1.50;61.00
74294;DHT22;64044;59.904;10.738;2022-12-05T09:51:41;1.50;61.00
74294;DHT22;64044;59.904;10.738;2022-12-05T09:54:10;1.50;60.90
74294;DHT22;64044;59.904;10.738;2022-12-05T09:56:37;1.40;61.70
74294;DHT22;64044;59.904;10.738;2022-12-05T09:59:07;1.50;62.40
74294;DHT22;64044;59.904;10.738;2022-12-05T10:10:24;1.40;60.60
74294;DHT22;64044;59.904;10.738;2022-12-05T10:16:07;1.40;61.00
74294;DHT22;64044;59.904;10.738;2022-12-05T10:21:23;1.50;60.60
74294;DHT22;64044;59.904;10.738;2022-12-05T10:24:01;1.50;60.50
74294;DHT22;64044;59.904;10.738;2022-12-05T10:26:46;1.50;60.40
74294;DHT22;64044;59.904;10.738;2022-12-05T10:32:21;1.50;60.40
74294;DHT22;64044;59.904;10.738;2022-12-05T10:34:49;1.50;60.40
74294;DHT22;64044;59.904;10.738;2022-12-05T10:37:16;1.60;60.60
74294;DHT22;64044;59.904;10.738;2022-12-05T10:39:42;1.60;60.80
74294;DHT22;64044;59.904;10.738;2022-12-05T10:42:16;1.50;60.50
74294;DHT22;64044;59.904;10.738;2022-12-05T10:44:43;1.50;61.30
74294;DHT22;64044;59.904;10.738;2022-12-05T10:47:10;1.50;61.30
74294;DHT22;64044;59.904;10.738;2022-12-05T10:49:37;1.50;61.10
74294;DHT22;64044;59.904;10.738;2022-12-05T10:52:03;1.40;61.00
74294;DHT22;64044;59.904;10.738;2022-12-05T10:54:32;1.50;60.80
74294;DHT22;64044;59.904;10.738;2022-12-05T10:57:25;1.40;60.50
74294;DHT22;64044;59.904;10.738;2022-12-05T10:59:51;1.40;60.60
74294;DHT22;64044;59.904;10.738;2022-12-05T11:02:28;1.40;60.60
74294;DHT22;64044;59.904;10.738;2022-12-05T11:04:55;1.40;60.60
74294;DHT22;64044;59.904;10.738;2022-12-05T11:10:34;1.40;60.50
74294;DHT22;64044;59.904;10.738;2022-12-05T11:13:01;1.40;60.70
74294;DHT22;64044;59.904;10.738;2022-12-05T11:15:44;1.40;60.60
74294;DHT22;64044;59.904;10.738;2022-12-05T11:18:24;1.50;60.60
74294;DHT22;64044;59.904;10.738;2022-12-05T11:20:51;1.40;60.50
74294;DHT22;64044;59.904;10.738;2022-12-05T11:23:24;1.40;60.50
74294;DHT22;64044;59.904;10.738;2022-12-05T11:25:51;1.40;60.40
74294;DHT22;64044;59.904;10.738;2022-12-05T11:33:34;1.50;60.50
74294;DHT22;64044;59.904;10.738;2022-12-05T11:38:47;1.60;60.40
74294;DHT22;64044;59.904;10.738;2022-12-05T11:46:56;1.70;59.80
74294;DHT22;64044;59.904;10.738;2022-12-05T11:49:39;1.80;59.90
74294;DHT22;64044;59.904;10.738;2022-12-05T12:00:21;1.80;59.50
74294;DHT22;64044;59.904;10.738;2022-12-05T12:02:59;1.80;59.50
74294;DHT22;64044;59.904;10.738;2022-12-05T12:11:25;1.80;59.50
74294;DHT22;64044;59.904;10.738;2022-12-05T12:16:45;1.90;59.60
74294;DHT22;64044;59.904;10.738;2022-12-05T12:28:19;1.90;60.10
74294;DHT22;64044;59.904;10.738;2022-12-05T12:33:43;1.80;59.70
74294;DHT22;64044;59.904;10.738;2022-12-05T12:45:21;1.70;60.00
74294;DHT22;64044;59.904;10.738;2022-12-05T12:50:36;1.60;60.10
74294;DHT22;64044;59.904;10.738;2022-12-05T13:01:48;1.40;59.50
74294;DHT22;64044;59.904;10.738;2022-12-05T13:04:15;1.40;59.70
74294;DHT22;64044;59.904;10.738;2022-12-05T13:06:52;1.40;59.80
74294;DHT22;64044;59.904;10.738;2022-12-05T13:09:27;1.30;59.70
74294;DHT22;64044;59.904;10.738;2022-12-05T13:11:58;1.30;59.70
74294;DHT22;64044;59.904;10.738;2022-12-05T13:14:25;1.30;59.80
74294;DHT22;64044;59.904;10.738;2022-12-05T13:16:53;1.30;59.80
74294;DHT22;64044;59.904;10.738;2022-12-05T13:19:39;1.30;59.90
74294;DHT22;64044;59.904;10.738;2022-12-05T13:22:06;1.30;60.10
74294;DHT22;64044;59.904;10.738;2022-12-05T13:24:33;1.30;60.00
74294;DHT22;64044;59.904;10.738;2022-12-05T13:27:01;1.40;60.00
74294;DHT22;64044;59.904;10.738;2022-12-05T13:29:38;1.30;59.90
74294;DHT22;64044;59.904;10.738;2022-12-05T13:32:06;1.30;59.80
74294;DHT22;64044;59.904;10.738;2022-12-05T13:34:48;1.30;59.80
74294;DHT22;64044;59.904;10.738;2022-12-05T13:37:23;1.30;59.50
74294;DHT22;64044;59.904;10.738;2022-12-05T13:40:21;1.30;59.70
74294;DHT22;64044;59.904;10.738;2022-12-05T13:43:06;1.30;59.80
74294;DHT22;64044;59.904;10.738;2022-12-05T13:45:33;1.30;59.70
74294;DHT22;64044;59.904;10.738;2022-12-05T13:50:51;1.30;59.90
74294;DHT22;64044;59.904;10.738;2022-12-05T13:53:37;1.30;59.80
74294;DHT22;64044;59.904;10.738;2022-12-05T13:58:57;1.30;59.80
74294;DHT22;64044;59.904;10.738;2022-12-05T14:03:59;1.40;60.00
74294;DHT22;64044;59.904;10.738;2022-12-05T14:11:29;1.40;59.90
74294;DHT22;64044;59.904;10.738;2022-12-05T14:13:54;1.40;60.00
74294;DHT22;64044;59.904;10.738;2022-12-05T14:24:33;1.40;60.60
74294;DHT22;64044;59.904;10.738;2022-12-05T14:32:42;1.30;60.60
74294;DHT22;64044;59.904;10.738;2022-12-05T14:35:14;1.30;60.50
74294;DHT22;64044;59.904;10.738;2022-12-05T14:37:56;1.30;60.50
74294;DHT22;64044;59.904;10.738;2022-12-05T14:43:07;1.20;60.50
74294;DHT22;64044;59.904;10.738;2022-12-05T14:50:47;1.10;60.50
74294;DHT22;64044;59.904;10.738;2022-12-05T14:58:54;1.10;60.60
74294;DHT22;64044;59.904;10.738;2022-12-05T15:01:27;1.10;60.50
74294;DHT22;64044;59.904;10.738;2022-12-05T15:06:23;1.10;60.50
74294;DHT22;64044;59.904;10.738;2022-12-05T15:08:54;1.10;60.50
74294;DHT22;64044;59.904;10.738;2022-12-05T15:11:23;1.10;60.50
74294;DHT22;64044;59.904;10.738;2022-12-05T15:16:36;1.10;61.00
74294;DHT22;64044;59.904;10.738;2022-12-05T15:19:11;1.10;61.00
74294;DHT22;64044;59.904;10.738;2022-12-05T15:21:43;1.10;61.10
74294;DHT22;64044;59.904;10.738;2022-12-05T15:24:18;1.00;61.00
74294;DHT22;64044;59.904;10.738;2022-12-05T15:26:56;1.10;61.10
74294;DHT22;64044;59.904;10.738;2022-12-05T15:31:50;1.00;60.90
74294;DHT22;64044;59.904;10.738;2022-12-05T15:37:20;1.00;61.20
74294;DHT22;64044;59.904;10.738;2022-12-05T15:39:58;1.00;61.50
74294;DHT22;64044;59.904;10.738;2022-12-05T15:42:35;0.90;61.40
74294;DHT22;64044;59.904;10.738;2022-12-05T15:47:41;0.90;61.70
74294;DHT22;64044;59.904;10.738;2022-12-05T15:52:59;0.90;61.60
74294;DHT22;64044;59.904;10.738;2022-12-05T15:55:39;0.90;61.60
74294;DHT22;64044;59.904;10.738;2022-12-05T16:00:35;0.80;62.20
74294;DHT22;64044;59.904;10.738;2022-12-05T16:03:11;0.80;62.40
74294;DHT22;64044;59.904;10.738;2022-12-05T16:05:50;0.80;62.50
74294;DHT22;64044;59.904;10.738;2022-12-05T16:08:17;0.80;62.50
74294;DHT22;64044;59.904;10.738;2022-12-05T16:10:42;0.70;62.50
74294;DHT22;64044;59.904;10.738;2022-12-05T16:13:13;0.70;61.90
74294;DHT22;64044;59.904;10.738;2022-12-05T16:15:46;0.70;61.40
74294;DHT22;64044;59.904;10.738;2022-12-05T16:18:28;0.60;61.20
74294;DHT22;64044;59.904;10.738;2022-12-05T16:20:54;0.60;61.60
74294;DHT22;64044;59.904;10.738;2022-12-05T16:23:28;0.60;61.60
74294;DHT22;64044;59.904;10.738;2022-12-05T16:26:17;0.50;61.30
74294;DHT22;64044;59.904;10.738;2022-12-05T16:28:56;0.50;61.10
74294;DHT22;64044;59.904;10.738;2022-12-05T16:31:22;0.50;61.20
74294;DHT22;64044;59.904;10.738;2022-12-05T16:34:05;0.50;61.20
74294;DHT22;64044;59.904;10.738;2022-12-05T16:36:32;0.50;61.20
74294;DHT22;64044;59.904;10.738;2022-12-05T16:39:04;0.40;61.10
74294;DHT22;64044;59.904;10.738;2022-12-05T16:41:38;0.40;61.20
74294;DHT22;64044;59.904;10.738;2022-12-05T16:44:07;0.50;61.30
74294;DHT22;64044;59.904;10.738;2022-12-05T16:46:50;0.40;61.20
74294;DHT22;64044;59.904;10.738;2022-12-05T16:49:34;0.40;61.40
74294;DHT22;64044;59.904;10.738;2022-12-05T16:54:32;0.40;62.10
74294;DHT22;64044;59.904;10.738;2022-12-05T16:56:58;0.40;62.20
74294;DHT22;64044;59.904;10.738;2022-12-05T16:59:35;0.30;62.30
74294;DHT22;64044;59.904;10.738;2022-12-05T17:02:03;0.30;62.20
74294;DHT22;64044;59.904;10.738;2022-12-05T17:04:30;0.30;62.30
74294;DHT22;64044;59.904;10.738;2022-12-05T17:06:56;0.30;62.30
74294;DHT22;64044;59.904;10.738;2022-12-05T17:09:22;0.20;62.50
74294;DHT22;64044;59.904;10.738;2022-12-05T17:11:50;0.20;63.00
74294;DHT22;64044;59.904;10.738;2022-12-05T17:14:17;0.20;63.50
74294;DHT22;64044;59.904;10.738;2022-12-05T17:16:44;0.20;63.40
74294;DHT22;64044;59.904;10.738;2022-12-05T17:19:10;0.10;63.80
74294;DHT22;64044;59.904;10.738;2022-12-05T17:21:37;0.10;63.40
74294;DHT22;64044;59.904;10.738;2022-12-05T17:24:03;0.10;64.60
74294;DHT22;64044;59.904;10.738;2022-12-05T17:26:29;0.10;64.90
74294;DHT22;64044;59.904;10.738;2022-12-05T17:28:55;0.10;63.70
74294;DHT22;64044;59.904;10.738;2022-12-05T17:31:23;0.10;64.10
74294;DHT22;64044;59.904;10.738;2022-12-05T17:33:50;0.10;63.70
74294;DHT22;64044;59.904;10.738;2022-12-05T17:36:16;0.00;63.80
74294;DHT22;64044;59.904;10.738;2022-12-05T17:38:44;0.00;63.40
74294;DHT22;64044;59.904;10.738;2022-12-05T17:41:35;-0.10;63.10
74294;DHT22;64044;59.904;10.738;2022-12-05T17:44:02;-0.10;63.20
74294;DHT22;64044;59.904;10.738;2022-12-05T17:46:28;-0.10;63.00
74294;DHT22;64044;59.904;10.738;2022-12-05T17:48:54;-0.20;63.20
74294;DHT22;64044;59.904;10.738;2022-12-05T17:51:20;-0.20;63.30
74294;DHT22;64044;59.904;10.738;2022-12-05T17:53:47;-0.30;63.90
74294;DHT22;64044;59.904;10.738;2022-12-05T17:56:13;-0.30;63.80
74294;DHT22;64044;59.904;10.738;2022-12-05T17:58:39;-0.40;63.70
74294;DHT22;64044;59.904;10.738;2022-12-05T18:01:05;-0.30;63.80
74294;DHT22;64044;59.904;10.738;2022-12-05T18:03:31;-0.40;63.80
74294;DHT22;64044;59.904;10.738;2022-12-05T18:05:57;-0.40;63.90
74294;DHT22;64044;59.904;10.738;2022-12-05T18:08:23;-0.40;64.10
74294;DHT22;64044;59.904;10.738;2022-12-05T18:10:49;-0.50;64.10
74294;DHT22;64044;59.904;10.738;2022-12-05T18:13:16;-0.40;64.30
74294;DHT22;64044;59.904;10.738;2022-12-05T18:15:42;-0.50;64.20
74294;DHT22;64044;59.904;10.738;2022-12-05T18:18:14;-0.50;64.00
74294;DHT22;64044;59.904;10.738;2022-12-05T18:20:40;-0.60;63.70
74294;DHT22;64044;59.904;10.738;2022-12-05T18:23:06;-0.60;63.70
74294;DHT22;64044;59.904;10.738;2022-12-05T18:25:31;-0.60;63.40
74294;DHT22;64044;59.904;10.738;2022-12-05T18:27:57;-0.70;63.40
74294;DHT22;64044;59.904;10.738;2022-12-05T18:30:23;-0.70;63.20
74294;DHT22;64044;59.904;10.738;2022-12-05T18:32:49;-0.70;63.10
74294;DHT22;64044;59.904;10.738;2022-12-05T18:35:14;-0.80;63.10
74294;DHT22;64044;59.904;10.738;2022-12-05T18:37:40;-0.80;63.00
74294;DHT22;64044;59.904;10.738;2022-12-05T18:40:07;-0.80;63.00
74294;DHT22;64044;59.904;10.738;2022-12-05T18:42:34;-0.90;63.00
74294;DHT22;64044;59.904;10.738;2022-12-05T18:45:00;-0.90;63.10
74294;DHT22;64044;59.904;10.738;2022-12-05T18:47:26;-1.00;63.10
74294;DHT22;64044;59.904;10.738;2022-12-05T18:49:52;-1.00;63.10
74294;DHT22;64044;59.904;10.738;2022-12-05T18:52:17;-1.10;63.20
74294;DHT22;64044;59.904;10.738;2022-12-05T18:54:43;-1.10;64.00
74294;DHT22;64044;59.904;10.738;2022-12-05T18:57:09;-1.10;63.30
74294;DHT22;64044;59.904;10.738;2022-12-05T18:59:35;-1.10;63.50
74294;DHT22;64044;59.904;10.738;2022-12-05T19:02:00;-1.10;63.50
74294;DHT22;64044;59.904;10.738;2022-12-05T19:04:27;-1.20;63.60
74294;DHT22;64044;59.904;10.738;2022-12-05T19:06:54;-1.20;63.60